Time;durP1;ratioP1;P1;durP2;ratioP2;P2;SDS_P1;SDS_P2;PMS_P1;PMS_P2;Temp;Humidity;BMP_temperature;BMP_pressure;BME280_temperature;BME280_humidity;BME280_pressure;Samples;Min_cycle;Max_cycle;Signal;HPM_P1;HPM_P2
2023/05/26 00:00:12;;;;;;;20.33;8.85;;;;;;;15.66;97.50;100134.50;6271999;28;20106;-71
2023/05/26 00:03:13;;;;;;;22.02;8.75;;;;;;;15.53;97.60;100133.84;6271252;28;20091;-71
2023/05/26 00:06:14;;;;;;;17.75;8.65;;;;;;;15.54;96.93;100139.94;6271185;28;20053;-71
2023/05/26 00:09:17;;;;;;;18.38;9.48;;;;;;;15.54;98.50;100139.94;6304251;28;20056;-71
2023/05/26 00:12:19;;;;;;;17.00;9.35;;;;;;;15.60;97.22;100134.19;6304207;28;20053;-71
2023/05/26 00:15:20;;;;;;;17.50;9.07;;;;;;;15.48;97.50;100136.00;6303969;28;20045;-71
2023/05/26 00:18:26;;;;;;;14.63;8.57;;;;;;;15.57;96.60;100140.53;6270827;28;20488;-72
2023/05/26 00:21:27;;;;;;;16.85;9.40;;;;;;;15.29;98.34;100136.63;6271463;28;20138;-72
2023/05/26 00:24:27;;;;;;;22.23;10.05;;;;;;;15.39;97.33;100139.38;6303646;28;20057;-71
2023/05/26 00:27:28;;;;;;;19.52;9.60;;;;;;;15.25;98.55;100138.66;6270321;28;20413;-71
2023/05/26 00:30:29;;;;;;;23.70;9.82;;;;;;;15.40;98.11;100146.28;6271171;28;20092;-71
2023/05/26 00:33:32;;;;;;;19.70;10.13;;;;;;;15.26;98.76;100139.53;6269813;28;20041;-71
2023/05/26 00:36:35;;;;;;;19.13;9.25;;;;;;;15.31;98.48;100134.72;6270011;28;20072;-70
2023/05/26 00:39:36;;;;;;;23.08;9.95;;;;;;;15.19;99.25;100131.25;6269969;28;20575;-71
2023/05/26 00:42:37;;;;;;;17.30;8.88;;;;;;;15.05;99.63;100131.50;6271102;28;20057;-70
2023/05/26 00:45:37;;;;;;;20.77;9.90;;;;;;;15.07;99.48;100125.22;6271186;28;20464;-71
2023/05/26 00:48:38;;;;;;;20.02;9.70;;;;;;;15.06;100.00;100134.03;6303504;28;20107;-71
2023/05/26 00:51:40;;;;;;;19.60;10.40;;;;;;;14.98;100.00;100127.72;6303404;28;20390;-71
2023/05/26 00:54:42;;;;;;;21.63;10.23;;;;;;;14.90;100.00;100117.78;6270824;28;20377;-70
2023/05/26 00:57:43;;;;;;;;;;;;;;;14.97;100.00;100129.50;6271526;28;20048;-72
2023/05/26 01:00:44;;;;;;;16.88;8.60;;;;;;;14.86;100.00;100127.69;6302753;28;19927;-71
2023/05/26 01:03:45;;;;;;;21.23;9.63;;;;;;;14.98;100.00;100135.59;6271127;28;20048;-71
2023/05/26 01:06:50;;;;;;;20.92;9.57;;;;;;;14.97;100.00;100131.28;6270909;28;20143;-70
2023/05/26 01:09:51;;;;;;;17.20;9.32;;;;;;;14.99;100.00;100135.47;6302896;28;20119;-71
2023/05/26 01:13:12;;;;;;;18.25;9.50;;;;;;;14.97;100.00;100131.28;6270718;28;20044;-71
2023/05/26 01:16:16;;;;;;;20.02;9.32;;;;;;;14.95;100.00;100131.44;6269301;28;20627;-71
2023/05/26 01:19:30;;;;;;;17.55;9.13;;;;;;;14.98;100.00;100130.34;6269461;28;20049;-71
2023/05/26 01:22:48;;;;;;;17.08;9.10;;;;;;;14.88;100.00;100133.66;6309911;28;20102;-71
2023/05/26 01:26:27;;;;;;;15.98;8.70;;;;;;;14.77;100.00;100131.06;6327965;28;20049;-70
2023/05/26 01:29:29;;;;;;;21.27;9.32;;;;;;;14.77;100.00;100127.59;6294698;28;20056;-71
2023/05/26 01:32:30;;;;;;;20.13;8.68;;;;;;;14.75;100.00;100132.13;6294796;28;20053;-71
2023/05/26 01:35:31;;;;;;;16.48;9.40;;;;;;;14.74;100.00;100122.56;6294130;28;20425;-71
2023/05/26 01:38:32;;;;;;;16.42;9.85;;;;;;;14.71;100.00;100123.66;6294121;28;20419;-71
2023/05/26 01:41:57;;;;;;;22.13;9.63;;;;;;;14.65;100.00;100119.69;6293675;28;20170;-70
2023/05/26 01:45:20;;;;;;;18.30;9.90;;;;;;;14.67;100.00;100117.78;6269868;28;20044;-71
2023/05/26 01:48:22;;;;;;;19.65;9.60;;;;;;;14.60;100.00;100116.59;6270480;28;20144;-71
2023/05/26 01:51:23;;;;;;;;;;;;;;;14.65;100.00;100116.25;6270635;28;20531;-71
2023/05/26 01:54:29;;;;;;;16.25;9.30;;;;;;;14.52;100.00;100109.28;6270229;28;19921;-72
2023/05/26 01:57:32;;;;;;;17.85;9.15;;;;;;;14.54;100.00;100118.81;6269199;28;20489;-70
2023/05/26 02:00:33;;;;;;;17.65;9.85;;;;;;;14.59;100.00;100114.09;6269102;28;20503;-71
2023/05/26 02:03:33;;;;;;;17.60;9.48;;;;;;;14.51;100.00;100120.72;6268845;28;20044;-70
2023/05/26 02:06:34;;;;;;;17.30;9.43;;;;;;;14.54;100.00;100124.06;6270082;28;20056;-71
2023/05/26 02:09:36;;;;;;;19.02;9.88;;;;;;;14.46;100.00;100114.16;6270096;28;20060;-71
2023/05/26 02:12:37;;;;;;;14.93;9.05;;;;;;;14.40;100.00;100119.88;6271722;28;20057;-71
2023/05/26 02:15:38;;;;;;;16.20;9.45;;;;;;;14.42;100.00;100110.94;6281564;28;20118;-71
2023/05/26 02:18:40;;;;;;;17.88;10.27;;;;;;;14.45;100.00;100120.34;6274770;28;20398;-71
2023/05/26 02:21:43;;;;;;;18.35;9.82;;;;;;;14.58;100.00;100121.13;6273950;28;20489;-71
2023/05/26 02:24:43;;;;;;;21.20;10.43;;;;;;;14.52;100.00;100109.28;6273929;28;20600;-71
2023/05/26 02:27:44;;;;;;;18.83;8.68;;;;;;;14.68;100.00;100116.00;6306927;28;20063;-71
2023/05/26 02:30:45;;;;;;;17.30;9.38;;;;;;;14.52;100.00;100113.69;6272777;28;20056;-71
2023/05/26 02:33:46;;;;;;;18.50;9.65;;;;;;;14.55;100.00;100117.88;6274052;28;20053;-71
2023/05/26 02:36:46;;;;;;;18.38;10.43;;;;;;;14.50;100.00;100116.44;6274123;28;20547;-71
2023/05/26 02:39:47;;;;;;;14.80;8.73;;;;;;;14.48;100.00;100115.72;6272962;28;20094;-71
2023/05/26 02:42:50;;;;;;;20.77;9.75;;;;;;;14.46;100.00;100114.16;6272718;28;20144;-71
2023/05/26 02:45:51;;;;;;;20.65;9.75;;;;;;;14.46;100.00;100119.41;6273958;28;20492;-70
2023/05/26 02:48:52;;;;;;;18.55;9.00;;;;;;;14.55;100.00;100121.31;6274074;28;20102;-70
2023/05/26 02:51:52;;;;;;;18.88;9.70;;;;;;;14.54;100.00;100114.41;6272735;28;20053;-71
2023/05/26 02:54:53;;;;;;;17.83;9.48;;;;;;;14.56;100.00;100115.16;6276113;28;20420;-71
2023/05/26 02:57:54;;;;;;;19.50;10.07;;;;;;;14.55;100.00;100117.88;6290789;28;20066;-71
2023/05/26 03:00:58;;;;;;;18.37;9.40;;;;;;;14.57;100.00;100118.63;6273755;28;20055;-70
2023/05/26 03:03:58;;;;;;;21.45;8.88;;;;;;;14.56;100.00;100119.56;6272908;28;20288;-71
2023/05/26 03:06:59;;;;;;;17.77;9.73;;;;;;;14.47;100.00;100114.03;6273530;28;20049;-70
2023/05/26 03:10:02;;;;;;;20.35;10.27;;;;;;;14.57;100.00;100127.31;6273004;28;20511;-71
2023/05/26 03:13:03;;;;;;;16.25;9.20;;;;;;;14.56;100.00;100120.41;6273326;28;20456;-71
2023/05/26 03:16:05;;;;;;;19.83;9.65;;;;;;;14.60;100.00;100121.84;6272025;28;20099;-70
2023/05/26 03:19:05;;;;;;;24.90;9.77;;;;;;;14.65;100.00;100126.75;6289409;28;20052;-71
2023/05/26 03:22:06;;;;;;;21.05;9.80;;;;;;;14.69;100.00;100115.06;6296569;28;20048;-71
2023/05/26 03:25:07;;;;;;;20.45;9.48;;;;;;;14.71;100.00;100121.03;6288779;28;20041;-71
2023/05/26 03:28:08;;;;;;;16.88;8.75;;;;;;;14.76;100.00;100125.91;6272240;28;20053;-70
2023/05/26 03:31:09;;;;;;;18.45;10.40;;;;;;;14.87;100.00;100118.88;6305400;28;20565;-71
2023/05/26 03:34:09;;;;;;;20.55;9.88;;;;;;;14.75;100.00;100113.75;6272584;28;20084;-71
2023/05/26 03:37:15;;;;;;;17.17;10.15;;;;;;;14.91;100.00;100117.69;6280311;28;20050;-71
2023/05/26 03:40:16;;;;;;;18.35;9.23;;;;;;;14.90;100.00;100109.91;6294994;28;20356;-71
2023/05/26 03:43:17;;;;;;;18.05;9.88;;;;;;;15.04;100.00;100120.19;6289124;28;20095;-70
2023/05/26 03:46:17;;;;;;;19.90;10.10;;;;;;;15.04;100.00;100116.72;6274894;28;20103;-71
2023/05/26 03:49:18;;;;;;;18.60;10.07;;;;;;;15.08;100.00;100120.78;6272813;28;20524;-71
2023/05/26 03:52:20;;;;;;;19.13;9.57;;;;;;;15.17;100.00;100122.66;6272538;28;20053;-71
2023/05/26 03:55:21;;;;;;;25.80;10.27;;;;;;;15.24;100.00;100120.41;6272605;28;20564;-71
2023/05/26 03:58:21;;;;;;;16.35;9.10;;;;;;;15.17;100.00;100119.22;6289960;28;20048;-71
2023/05/26 04:01:22;;;;;;;18.63;9.32;;;;;;;15.23;100.00;100131.88;6295200;28;20098;-71
2023/05/26 04:04:23;;;;;;;16.27;9.23;;;;;;;15.15;100.00;100129.00;6280046;28;20049;-71
2023/05/26 04:07:23;;;;;;;22.50;9.98;;;;;;;15.43;100.00;100135.53;6285020;28;20051;-71
2023/05/26 04:10:27;;;;;;;20.42;8.77;;;;;;;15.44;100.00;100131.94;6293249;28;20097;-71
2023/05/26 04:13:27;;;;;;;19.70;9.35;;;;;;;15.40;100.00;100130.50;6289089;28;20055;-71
2023/05/26 04:16:33;;;;;;;21.05;9.40;;;;;;;15.49;100.00;100133.25;6295566;28;20053;-72
2023/05/26 04:19:33;;;;;;;14.35;9.10;;;;;;;15.53;100.00;100120.69;6293855;28;20507;-70
2023/05/26 04:22:34;;;;;;;17.73;9.50;;;;;;;15.66;100.00;100121.38;6283066;28;20411;-71
2023/05/26 04:25:35;;;;;;;18.33;9.65;;;;;;;15.79;100.00;100128.28;6292181;28;20040;-70
2023/05/26 04:28:36;;;;;;;18.00;9.43;;;;;;;15.76;100.00;100118.88;6295308;28;20048;-71
2023/05/26 04:31:41;;;;;;;25.10;11.20;;;;;;;15.94;100.00;100128.81;6284223;28;20041;-71
2023/05/26 04:34:44;;;;;;;16.00;8.93;;;;;;;15.93;100.00;100128.00;6305492;28;20060;-71
2023/05/26 04:37:45;;;;;;;15.48;8.80;;;;;;;16.04;100.00;100129.72;6304930;28;20055;-71
2023/05/26 04:40:46;;;;;;;15.23;9.52;;;;;;;16.05;100.00;100129.63;6328374;28;20073;-71
2023/05/26 04:43:47;;;;;;;21.92;10.05;;;;;;;16.14;100.00;100132.44;6294809;28;20040;-71
2023/05/26 04:46:49;;;;;;;15.73;8.93;;;;;;;16.25;100.00;100141.13;6293518;28;20106;-71
2023/05/26 04:49:52;;;;;;;17.23;9.43;;;;;;;16.29;100.00;100153.06;6294945;28;20049;-72
2023/05/26 04:52:52;;;;;;;18.23;9.63;;;;;;;16.36;100.00;100147.28;6328683;28;20067;-71
2023/05/26 04:55:53;;;;;;;17.70;9.85;;;;;;;16.39;100.00;100147.03;6320795;28;20040;-71
2023/05/26 04:58:55;;;;;;;20.23;9.95;;;;;;;16.50;100.00;100139.06;6291434;28;20473;-72
2023/05/26 05:01:56;;;;;;;18.25;9.77;;;;;;;16.63;100.00;100149.41;6295824;28;20052;-71
2023/05/26 05:04:57;;;;;;;21.60;9.82;;;;;;;16.66;100.00;100157.88;6293696;28;20056;-71
2023/05/26 05:07:58;;;;;;;16.38;8.57;;;;;;;16.72;100.00;100153.91;6294554;28;20048;-71
2023/05/26 05:11:00;;;;;;;19.15;8.80;;;;;;;16.91;100.00;100156.66;6294246;28;20049;-71
2023/05/26 05:14:01;;;;;;;20.58;9.30;;;;;;;17.03;100.00;100152.13;6295573;28;20059;-71
2023/05/26 05:17:02;;;;;;;20.77;9.85;;;;;;;17.07;99.56;100160.59;6294054;28;20052;-71
2023/05/26 05:20:04;;;;;;;19.70;8.52;;;;;;;17.25;98.41;100166.06;6295588;28;20052;-71
2023/05/26 05:23:04;;;;;;;15.82;8.85;;;;;;;17.33;97.99;100164.41;6295276;28;20052;-71
2023/05/26 05:26:05;;;;;;;16.20;8.50;;;;;;;17.25;96.23;100158.97;6295154;28;20059;-71
2023/05/26 05:29:07;;;;;;;17.02;9.15;;;;;;;17.41;97.02;100166.41;6294343;28;20059;-70
2023/05/26 05:32:11;;;;;;;14.18;8.77;;;;;;;17.48;95.23;100178.09;6293983;28;20134;-71
2023/05/26 05:35:12;;;;;;;16.30;9.05;;;;;;;17.63;93.61;100180.34;6293954;28;20132;-70
2023/05/26 05:38:12;;;;;;;14.15;8.07;;;;;;;17.75;92.54;100179.25;6293972;28;20485;-70
2023/05/26 05:41:14;;;;;;;15.45;8.13;;;;;;;17.93;92.37;100179.41;6295030;28;20056;-71
2023/05/26 05:44:15;;;;;;;15.32;8.65;;;;;;;18.02;91.38;100175.97;6295148;28;20049;-71
2023/05/26 05:47:15;;;;;;;13.98;8.25;;;;;;;18.12;89.36;100184.72;6297173;28;20045;-71
2023/05/26 05:50:19;;;;;;;16.60;8.13;;;;;;;18.25;88.61;100183.59;6299022;28;20048;-72
2023/05/26 05:53:19;;;;;;;16.60;8.35;;;;;;;18.32;88.81;100177.63;6298576;28;20546;-71
2023/05/26 05:56:21;;;;;;;17.20;8.10;;;;;;;18.43;88.36;100189.00;6299899;28;20048;-71
2023/05/26 05:59:21;;;;;;;17.20;8.27;;;;;;;18.71;88.67;100192.56;6299850;28;20078;-71
2023/05/26 06:02:22;;;;;;;21.15;8.45;;;;;;;18.98;85.38;100197.09;6298743;28;20052;-72
2023/05/26 06:05:23;;;;;;;14.93;8.48;;;;;;;19.13;82.99;100189.56;6299634;28;20052;-71
2023/05/26 06:08:23;;;;;;;13.90;8.02;;;;;;;19.08;83.55;100183.84;6298572;28;20098;-71
2023/05/26 06:11:25;;;;;;;16.27;8.18;;;;;;;19.21;83.29;100192.31;6298398;28;20133;-72
2023/05/26 06:14:26;;;;;;;14.55;8.45;;;;;;;19.36;82.21;100186.53;6298376;28;20048;-72
2023/05/26 06:17:27;;;;;;;12.60;7.65;;;;;;;19.57;81.00;100194.22;6299551;28;20044;-72
2023/05/26 06:20:27;;;;;;;16.17;8.30;;;;;;;19.75;80.37;100197.75;6298310;28;20045;-72
2023/05/26 06:23:29;;;;;;;13.40;7.35;;;;;;;19.88;78.30;100197.38;6299250;28;20053;-71
2023/05/26 06:26:29;;;;;;;11.93;7.13;;;;;;;20.04;77.56;100197.53;6298055;28;20052;-70
2023/05/26 06:29:30;;;;;;;10.27;7.07;;;;;;;20.09;74.80;100199.72;6298131;28;20059;-71
2023/05/26 06:32:31;;;;;;;14.90;7.18;;;;;;;19.92;75.44;100191.63;6298062;28;20623;-71
2023/05/26 06:35:32;;;;;;;15.73;7.85;;;;;;;20.10;76.72;100206.69;6299231;28;20048;-71
2023/05/26 06:38:32;;;;;;;12.57;6.47;;;;;;;20.12;75.36;100205.56;6299056;28;20048;-71
2023/05/26 06:41:33;;;;;;;13.18;7.80;;;;;;;20.28;73.25;100207.53;6297781;28;20497;-71
2023/05/26 06:44:36;;;;;;;15.10;6.77;;;;;;;20.29;72.61;100205.69;6297792;28;20044;-71
2023/05/26 06:47:37;;;;;;;12.25;6.93;;;;;;;20.64;73.84;100211.97;6298929;28;20052;-71
2023/05/26 06:50:37;;;;;;;11.50;7.60;;;;;;;20.80;71.31;100209.44;6297688;28;20132;-71
2023/05/26 06:53:38;;;;;;;15.03;7.33;;;;;;;20.80;70.78;100209.44;6297427;28;20076;-72
2023/05/26 06:56:39;;;;;;;14.80;6.70;;;;;;;21.06;70.99;100203.25;6298702;28;20051;-71
2023/05/26 06:59:43;;;;;;;10.30;6.50;;;;;;;21.20;69.33;100207.97;6297710;28;20048;-71
2023/05/26 07:02:44;;;;;;;9.63;6.53;;;;;;;21.26;69.63;100209.16;6298265;28;20592;-71
2023/05/26 07:05:46;;;;;;;11.70;6.68;;;;;;;21.44;68.88;100206.47;6298219;28;20040;-71
2023/05/26 07:08:46;;;;;;;13.50;6.88;;;;;;;21.43;67.25;100215.41;6297070;28;20110;-71
2023/05/26 07:11:47;;;;;;;10.47;6.93;;;;;;;21.63;68.87;100215.97;6298232;28;20471;-71
2023/05/26 07:14:48;;;;;;;9.50;5.97;;;;;;;21.63;65.34;100210.66;6298212;28;20045;-71
2023/05/26 07:17:49;;;;;;;9.87;6.70;;;;;;;21.93;67.29;100217.22;6297924;28;20049;-71
2023/05/26 07:20:50;;;;;;;8.50;6.20;;;;;;;22.20;64.32;100216.09;6296622;28;20420;-71
2023/05/26 07:23:51;;;;;;;10.80;7.20;;;;;;;22.14;63.54;100219.41;6296382;28;20052;-71
2023/05/26 07:26:51;;;;;;;11.13;6.70;;;;;;;22.42;64.72;100211.94;6295193;28;20436;-71
2023/05/26 07:29:52;;;;;;;8.70;6.20;;;;;;;22.80;66.04;100217.56;6296793;28;20106;-72
2023/05/26 07:32:53;;;;;;;10.07;6.00;;;;;;;22.74;64.14;100212.94;6297376;28;20056;-71
2023/05/26 07:35:54;;;;;;;11.00;6.70;;;;;;;23.10;63.26;100213.38;6296245;28;20429;-71
2023/05/26 07:38:55;;;;;;;14.60;6.60;;;;;;;23.18;62.48;100206.34;6296128;28;20052;-72
2023/05/26 07:41:56;;;;;;;13.37;6.40;;;;;;;23.31;58.90;100214.63;6330198;28;20071;-71
2023/05/26 07:44:57;;;;;;;11.10;6.07;;;;;;;23.52;58.75;100206.06;6296013;28;20047;-72
2023/05/26 07:47:57;;;;;;;9.63;6.20;;;;;;;23.79;60.78;100209.28;6297201;28;20060;-71
2023/05/26 07:50:58;;;;;;;10.00;6.00;;;;;;;24.01;60.62;100208.47;6296114;28;20661;-72
2023/05/26 07:53:59;;;;;;;9.10;6.07;;;;;;;24.01;58.23;100216.44;6297009;28;20049;-72
2023/05/26 07:57:00;;;;;;;10.30;6.03;;;;;;;24.06;58.60;100208.75;6295879;28;20467;-71
2023/05/26 08:00:03;;;;;;;12.07;6.47;;;;;;;24.28;58.45;100209.75;6296842;28;20188;-73
2023/05/26 08:03:05;;;;;;;10.02;5.18;;;;;;;24.42;60.05;100213.47;6296953;28;20059;-71
2023/05/26 08:06:05;;;;;;;9.60;5.30;;;;;;;24.42;55.78;100205.47;6296665;28;20048;-71
2023/05/26 08:09:10;;;;;;;9.83;5.80;;;;;;;24.76;60.51;100216.69;6328960;28;20048;-71
2023/05/26 08:12:11;;;;;;;8.90;5.40;;;;;;;24.89;54.78;100206.19;6295305;28;20415;-71
2023/05/26 08:15:14;;;;;;;8.73;4.87;;;;;;;24.80;53.24;100220.66;6296398;28;20052;-71
2023/05/26 08:18:15;;;;;;;8.43;4.88;;;;;;;25.23;53.56;100207.53;6296440;28;20052;-71
2023/05/26 08:21:16;;;;;;;9.80;5.53;;;;;;;25.38;52.88;100218.19;6295412;28;20052;-71
2023/05/26 08:24:16;;;;;;;6.97;5.03;;;;;;;25.71;51.82;100208.72;6296090;28;20064;-71
2023/05/26 08:27:17;;;;;;;8.30;5.33;;;;;;;25.40;51.09;100206.28;6296222;28;20055;-71
2023/05/26 08:30:18;;;;;;;9.37;5.13;;;;;;;25.41;52.49;100207.13;6296470;28;20645;-72
2023/05/26 08:33:21;;;;;;;6.97;4.80;;;;;;;25.64;53.23;100210.50;6296185;28;20052;-71
2023/05/26 08:36:22;;;;;;;7.90;5.32;;;;;;;25.33;52.08;100210.75;6295884;28;20285;-72
2023/05/26 08:39:23;;;;;;;11.70;5.72;;;;;;;25.66;51.45;100211.13;6296743;28;20131;-71
2023/05/26 08:42:29;;;;;;;7.67;5.10;;;;;;;25.56;50.73;100209.78;6296164;28;20201;-71
2023/05/26 08:45:30;;;;;;;8.20;4.75;;;;;;;25.59;49.35;100204.88;6295761;28;20044;-71
2023/05/26 08:48:32;;;;;;;9.55;4.57;;;;;;;25.76;49.23;100201.97;6294551;28;20496;-71
2023/05/26 08:51:36;;;;;;;6.70;4.65;;;;;;;26.30;47.90;100202.34;6294639;28;20049;-71
2023/05/26 08:54:40;;;;;;;7.57;4.90;;;;;;;26.49;47.80;100200.00;6328185;28;20420;-72
2023/05/26 08:57:42;;;;;;;7.25;4.88;;;;;;;26.25;48.64;100204.78;6295911;28;20056;-71
2023/05/26 09:00:47;;;;;;;8.25;4.90;;;;;;;26.70;47.24;100204.50;6328077;28;20048;-72
2023/05/26 09:03:48;;;;;;;10.48;4.88;;;;;;;26.68;46.21;100199.34;6328293;28;20048;-72
2023/05/26 09:06:49;;;;;;;6.20;4.30;;;;;;;26.96;46.42;100201.19;6295904;28;20083;-72
2023/05/26 09:09:50;;;;;;;5.57;4.15;;;;;;;27.07;45.91;100191.75;6294252;28;20452;-72
2023/05/26 09:13:24;;;;;;;10.00;4.68;;;;;;;27.25;46.17;100194.78;6294288;28;20084;-71
2023/05/26 09:16:26;;;;;;;9.98;4.20;;;;;;;26.91;44.68;100198.25;6250532;28;20048;-71
2023/05/26 09:19:27;;;;;;;7.45;4.55;;;;;;;26.92;45.31;100194.56;6293958;28;20055;-72
2023/05/26 09:22:34;;;;;;;6.20;4.32;;;;;;;27.50;46.00;100194.25;6327413;28;20060;-71
2023/05/26 09:25:36;;;;;;;7.82;4.50;;;;;;;27.16;46.12;100193.28;6293941;28;20488;-72
2023/05/26 09:28:48;;;;;;;10.30;4.55;;;;;;;27.46;42.85;100191.13;6295251;28;20139;-72
2023/05/26 09:31:51;;;;;;;7.40;4.30;;;;;;;27.71;47.11;100179.88;6295196;28;20131;-72
2023/05/26 09:34:55;;;;;;;5.18;4.03;;;;;;;27.64;43.50;100193.25;6328361;28;20049;-71
2023/05/26 09:37:55;;;;;;;6.45;3.97;;;;;;;27.43;43.14;100188.06;6294937;28;20045;-71
2023/05/26 09:40:56;;;;;;;8.05;4.75;;;;;;;27.65;43.48;100180.69;6329141;28;20064;-71
2023/05/26 09:44:10;;;;;;;5.50;3.67;;;;;;;27.63;42.95;100186.22;6296161;28;20140;-71
2023/05/26 09:47:18;;;;;;;5.88;3.88;;;;;;;28.01;43.22;100184.91;6296287;28;20060;-71
2023/05/26 09:50:19;;;;;;;7.85;4.03;;;;;;;27.72;41.67;100182.34;6296056;28;20477;-72
2023/05/26 09:53:20;;;;;;;6.82;3.97;;;;;;;27.70;42.25;100181.72;6295874;28;20059;-72
2023/05/26 09:56:22;;;;;;;6.28;4.07;;;;;;;27.45;42.75;100181.47;6293896;28;20550;-71
2023/05/26 09:59:31;;;;;;;6.13;3.78;;;;;;;27.83;44.79;100180.09;6328346;28;20049;-72
2023/05/26 10:02:35;;;;;;;7.00;4.03;;;;;;;27.57;42.95;100176.31;6294798;28;20650;-72
2023/05/26 10:05:39;;;;;;;5.53;3.80;;;;;;;28.10;42.44;100176.44;6296189;28;20130;-72
2023/05/26 10:08:44;;;;;;;8.50;4.10;;;;;;;28.45;38.79;100175.41;6296097;28;20155;-72
2023/05/26 10:11:49;;;;;;;5.50;3.53;;;;;;;28.80;42.25;100178.69;6296127;28;20056;-72
2023/05/26 10:14:52;;;;;;;7.57;3.85;;;;;;;29.00;39.82;100172.47;6328456;28;20053;-71
2023/05/26 10:17:53;;;;;;;5.88;3.80;;;;;;;28.94;36.43;100168.75;6295536;28;20055;-72
2023/05/26 10:20:57;;;;;;;6.07;3.65;;;;;;;29.14;40.22;100174.09;6295847;28;20484;-71
2023/05/26 10:24:35;;;;;;;5.68;4.15;;;;;;;28.76;40.87;100163.22;6294225;28;20063;-72
2023/05/26 10:28:04;;;;;;;7.82;4.05;;;;;;;29.22;41.57;100164.94;6281286;28;20061;-71
2023/05/26 10:31:05;;;;;;;5.70;3.90;;;;;;;29.20;39.81;100156.28;6294588;28;20048;-71
2023/05/26 10:34:38;;;;;;;5.97;4.03;;;;;;;29.45;38.70;100159.06;6297168;28;20045;-72
2023/05/26 10:37:39;;;;;;;7.25;3.97;;;;;;;28.92;39.07;100160.06;6299155;28;20056;-72
2023/05/26 10:40:49;;;;;;;7.22;4.13;;;;;;;28.20;38.63;100151.91;6331634;28;20056;-71
2023/05/26 10:43:50;;;;;;;6.28;4.10;;;;;;;28.95;42.40;100154.25;6297741;28;20055;-72
2023/05/26 10:47:02;;;;;;;6.20;4.05;;;;;;;28.72;40.52;100147.53;6331417;28;20501;-73
2023/05/26 10:50:03;;;;;;;6.30;3.67;;;;;;;29.49;39.05;100138.78;6297759;28;20045;-71
2023/05/26 10:53:20;;;;;;;5.65;3.83;;;;;;;29.37;37.85;100140.50;6331288;28;20063;-72
2023/05/26 10:56:25;;;;;;;4.57;3.70;;;;;;;29.23;37.81;100129.81;6297526;28;20413;-72
2023/05/26 10:59:33;;;;;;;4.75;3.47;;;;;;;29.16;39.87;100131.72;6331583;28;20056;-72
2023/05/26 11:02:37;;;;;;;10.20;3.67;;;;;;;29.16;38.40;100129.03;6298669;28;20162;-72
2023/05/26 11:05:37;;;;;;;5.97;3.88;;;;;;;29.31;37.35;100118.81;6297211;28;20094;-71
2023/05/26 11:08:49;;;;;;;4.70;3.53;;;;;;;29.57;39.40;100108.97;6298509;28;20052;-72
2023/05/26 11:11:51;;;;;;;6.88;3.97;;;;;;;29.19;36.97;100123.22;6297172;28;20074;-71
2023/05/26 11:14:52;;;;;;;7.15;4.05;;;;;;;29.78;38.47;100118.56;6331126;28;20080;-71
2023/05/26 11:17:54;;;;;;;;;;;;;;;29.03;36.65;100105.69;6298586;28;20083;-71
2023/05/26 11:20:58;;;;;;;6.45;3.60;;;;;;;29.23;38.56;100107.50;6296779;28;20399;-72
2023/05/26 11:23:59;;;;;;;3.88;2.92;;;;;;;29.53;37.11;100103.19;6330440;28;20056;-72
2023/05/26 11:27:04;;;;;;;6.32;3.30;;;;;;;29.54;35.27;100096.75;6330840;28;20049;-72
2023/05/26 11:30:06;;;;;;;4.85;3.38;;;;;;;29.76;34.92;100095.63;6330427;28;20052;-72
2023/05/26 11:33:12;;;;;;;4.70;3.13;;;;;;;30.13;40.78;100101.94;6296806;28;20051;-72
2023/05/26 11:36:18;;;;;;;5.25;3.35;;;;;;;30.10;33.83;100091.59;6296785;28;20044;-72
2023/05/26 11:39:20;;;;;;;6.57;3.35;;;;;;;29.70;35.16;100087.38;6297857;28;20060;-72
2023/05/26 11:42:20;;;;;;;5.80;3.20;;;;;;;30.00;36.08;100094.81;6297618;28;20053;-72
2023/05/26 11:45:23;;;;;;;4.53;3.38;;;;;;;30.02;34.62;100081.13;6295919;28;20055;-72
2023/05/26 11:48:24;;;;;;;3.38;2.90;;;;;;;29.66;37.47;100080.75;6297541;28;20052;-72
2023/05/26 11:51:25;;;;;;;5.63;3.22;;;;;;;28.22;36.05;100077.41;6329844;28;20051;-72
2023/05/26 11:54:26;;;;;;;5.88;3.35;;;;;;;29.22;37.08;100071.75;6296243;28;20045;-72
2023/05/26 11:57:33;;;;;;;6.32;3.13;;;;;;;29.90;37.61;100075.66;6297262;28;20048;-72
2023/05/26 12:00:37;;;;;;;8.40;2.92;;;;;;;29.43;34.59;100069.78;6296147;28;20127;-72
2023/05/26 12:03:44;;;;;;;5.32;3.38;;;;;;;29.79;35.89;100065.59;6297065;28;20131;-72
2023/05/26 12:06:45;;;;;;;4.32;3.17;;;;;;;29.04;38.50;100061.69;6329505;28;20390;-72
2023/05/26 12:09:46;;;;;;;8.85;3.83;;;;;;;28.94;36.14;100053.28;6296897;28;20054;-72
2023/05/26 12:12:50;;;;;;;6.45;3.22;;;;;;;29.64;36.28;100055.16;6329692;28;20052;-71
2023/05/26 12:15:51;;;;;;;6.03;3.67;;;;;;;29.24;38.52;100048.19;6296716;28;20225;-71
2023/05/26 12:18:54;;;;;;;4.03;3.17;;;;;;;29.83;34.95;100053.34;6296815;28;20143;-71
2023/05/26 12:21:56;;;;;;;6.18;3.15;;;;;;;29.78;34.48;100048.66;6295451;28;20052;-71
2023/05/26 12:25:00;;;;;;;4.85;2.95;;;;;;;29.72;35.08;100044.97;6329110;28;20488;-72
2023/05/26 12:28:01;;;;;;;4.85;2.92;;;;;;;29.38;34.57;100038.16;6295193;28;20427;-72
2023/05/26 12:31:01;;;;;;;5.57;3.53;;;;;;;29.71;36.18;100034.41;6296247;28;20056;-71
2023/05/26 12:34:02;;;;;;;5.50;3.42;;;;;;;29.96;34.36;100039.81;6296122;28;20496;-71
2023/05/26 12:37:03;;;;;;;3.60;3.08;;;;;;;29.95;34.23;100027.38;6294933;28;20048;-71
2023/05/26 12:40:05;;;;;;;5.60;3.05;;;;;;;29.87;34.86;100022.28;6295315;28;20076;-72
2023/05/26 12:43:06;;;;;;;5.95;3.17;;;;;;;29.83;36.61;100029.97;6295982;28;20496;-72
2023/05/26 12:46:07;;;;;;;4.57;2.95;;;;;;;30.01;37.28;100033.75;6296352;28;20060;-71
2023/05/26 12:49:09;;;;;;;4.60;3.22;;;;;;;29.66;36.13;100029.69;6294725;28;20052;-71
2023/05/26 12:52:10;;;;;;;4.95;3.30;;;;;;;29.81;35.35;100026.69;6295674;28;20058;-71
2023/05/26 12:55:11;;;;;;;6.60;3.17;;;;;;;29.37;34.85;100015.03;6294140;28;20052;-72
2023/05/26 12:58:14;;;;;;;5.82;2.95;;;;;;;29.43;34.26;100021.41;6292613;28;20059;-72
2023/05/26 13:01:15;;;;;;;8.10;3.38;;;;;;;29.40;34.11;100011.06;6294072;28;20133;-72
2023/05/26 13:04:17;;;;;;;7.15;3.10;;;;;;;29.45;35.92;100009.38;6295044;28;20048;-71
2023/05/26 13:07:18;;;;;;;5.32;3.05;;;;;;;29.62;36.70;100001.59;6293568;28;20052;-72
2023/05/26 13:10:18;;;;;;;5.75;3.35;;;;;;;29.94;36.11;100009.63;6327574;28;20481;-71
2023/05/26 13:13:20;;;;;;;3.65;3.05;;;;;;;30.28;37.85;100004.69;6294210;28;20044;-71
2023/05/26 13:16:22;;;;;;;4.55;3.03;;;;;;;30.01;35.73;99998.78;6295361;28;20055;-71
2023/05/26 13:19:23;;;;;;;5.63;3.42;;;;;;;29.86;35.60;100001.84;6295776;28;20048;-71
2023/05/26 13:22:24;;;;;;;7.47;3.55;;;;;;;29.37;36.21;100001.59;6327538;28;20064;-72
2023/05/26 13:25:24;;;;;;;4.55;3.35;;;;;;;28.00;38.80;100007.09;6295191;28;20510;-71
2023/05/26 13:28:27;;;;;;;6.15;3.17;;;;;;;28.69;36.75;99991.44;6295388;28;20059;-71
2023/05/26 13:31:28;;;;;;;5.50;3.42;;;;;;;29.45;35.50;99985.19;6295038;28;20044;-72
2023/05/26 13:34:28;;;;;;;4.47;3.13;;;;;;;29.50;37.61;99990.72;6294106;28;20503;-71
2023/05/26 13:37:30;;;;;;;6.50;3.13;;;;;;;29.61;36.71;99989.22;6293930;28;20129;-72
2023/05/26 13:40:31;;;;;;;5.20;3.05;;;;;;;29.43;36.07;99992.66;6294020;28;20075;-72
2023/05/26 13:43:33;;;;;;;6.32;3.17;;;;;;;29.42;37.89;99985.63;6293813;28;20096;-71
2023/05/26 13:46:34;;;;;;;5.10;3.35;;;;;;;29.05;36.48;99982.75;6295341;28;20059;-72
2023/05/26 13:49:35;;;;;;;4.45;3.17;;;;;;;29.44;38.40;99991.59;6293787;28;20049;-72
2023/05/26 13:52:36;;;;;;;5.28;2.92;;;;;;;29.40;36.08;99989.56;6293924;28;20045;-71
2023/05/26 13:55:37;;;;;;;;;;;;;;;29.32;36.90;99988.81;6295724;28;20041;-71
2023/05/26 13:58:38;;;;;;;4.05;3.10;;;;;;;29.16;35.85;99991.19;6293577;28;19920;-72
2023/05/26 14:01:39;;;;;;;5.70;2.92;;;;;;;28.89;36.76;99994.84;6294936;28;20056;-72